createdAt,value
2023-05-31T00:02:32.425Z,100819.75
2023-05-31T00:05:33.966Z,100825.47
2023-05-31T00:08:35.411Z,100811.31
2023-05-31T00:11:36.871Z,100811.25
2023-05-31T00:14:38.333Z,100804.94
2023-05-31T00:20:44.263Z,100807.84
2023-05-31T00:23:45.694Z,100814.06
2023-05-31T00:26:47.161Z,100810.34
2023-05-31T00:29:48.581Z,100806.56
2023-05-31T00:32:50.287Z,100797.97
2023-05-31T00:35:51.739Z,100794.53
2023-05-31T00:38:53.182Z,100800.25
2023-05-31T00:41:54.722Z,100796.63
2023-05-31T00:44:56.185Z,100807.50
2023-05-31T00:47:58.272Z,100816.88
2023-05-31T00:51:00.486Z,100812.28
2023-05-31T00:54:03.069Z,100819.44
2023-05-31T00:57:05.144Z,100814.94
2023-05-31T01:00:08.987Z,100816.75
2023-05-31T01:03:10.528Z,100815.25
2023-05-31T01:06:12.182Z,100809.50
2023-05-31T01:09:14.066Z,100810.34
2023-05-31T01:12:44.595Z,100810.56
2023-05-31T01:16:12.125Z,100805.31
2023-05-31T01:19:26.116Z,100808.44
2023-05-31T01:22:51.453Z,100808.16
2023-05-31T01:26:08.694Z,100804.81
2023-05-31T01:29:17.911Z,100817.22
2023-05-31T01:32:22.380Z,100807.66
2023-05-31T01:35:23.867Z,100818.34
2023-05-31T01:38:26.358Z,100811.03
2023-05-31T01:41:31.980Z,100811.88
2023-05-31T01:44:34.184Z,100814.63
2023-05-31T01:47:36.294Z,100815.88
2023-05-31T01:50:37.941Z,100813.28
2023-05-31T01:53:39.628Z,100821.59
2023-05-31T01:56:42.747Z,100812.06
2023-05-31T01:59:45.587Z,100805.97
2023-05-31T02:02:47.927Z,100812.44
2023-05-31T02:05:59.771Z,100805.56
2023-05-31T02:09:01.349Z,100816.53
2023-05-31T02:12:03.372Z,100817.69
2023-05-31T02:15:14.365Z,100817.69
2023-05-31T02:18:18.071Z,100812.78
2023-05-31T02:21:20.887Z,100815.41
2023-05-31T02:24:22.334Z,100815.84
2023-05-31T02:27:23.758Z,100823.44
2023-05-31T02:30:32.867Z,100826.25
2023-05-31T02:33:34.286Z,100825.69
2023-05-31T02:36:36.121Z,100837.13
2023-05-31T02:39:37.567Z,100833.19
2023-05-31T02:42:41.389Z,100831.50
2023-05-31T02:45:43.322Z,100835.09
2023-05-31T02:48:45.591Z,100838.56
2023-05-31T02:51:47.185Z,100837.03
2023-05-31T02:54:48.662Z,100830.41
2023-05-31T02:57:55.705Z,100825.34
2023-05-31T03:00:57.561Z,100828.78
2023-05-31T03:04:00.994Z,100834.28
2023-05-31T03:07:07.603Z,100833.41
2023-05-31T03:10:11.474Z,100834.97
2023-05-31T03:13:13.219Z,100841.19
2023-05-31T03:16:14.714Z,100841.19
2023-05-31T03:19:16.264Z,100842.78
2023-05-31T03:22:21.791Z,100851.34
2023-05-31T03:25:23.258Z,100856.81
2023-05-31T03:28:24.771Z,100852.81
2023-05-31T03:31:30.078Z,100854.28
2023-05-31T03:34:33.987Z,100856.06
2023-05-31T03:37:36.079Z,100861.22
2023-05-31T03:40:42.282Z,100864.91
2023-05-31T03:43:43.847Z,100869.16
2023-05-31T03:46:45.382Z,100863.72
2023-05-31T03:49:46.845Z,100865.78
2023-05-31T03:52:48.283Z,100870.84
2023-05-31T03:55:49.721Z,100875.06
2023-05-31T03:58:51.412Z,100870.97
2023-05-31T04:01:54.512Z,100872.69
2023-05-31T04:04:56.153Z,100874.22
2023-05-31T04:08:02.766Z,100873.63
2023-05-31T04:11:07.013Z,100872.50
2023-05-31T04:14:08.477Z,100883.50
2023-05-31T04:17:10.061Z,100886.78
2023-05-31T04:20:14.066Z,100883.09
2023-05-31T04:23:15.989Z,100882.03
2023-05-31T04:26:18.799Z,100889.53
2023-05-31T04:29:22.581Z,100888.31
2023-05-31T04:32:26.064Z,100884.38
2023-05-31T04:35:30.022Z,100891.63
2023-05-31T04:38:33.374Z,100892.63
2023-05-31T04:41:35.099Z,100896.75
2023-05-31T04:44:37.400Z,100893.56
2023-05-31T04:47:38.970Z,100898.84
2023-05-31T04:50:41.470Z,100890.56
2023-05-31T04:53:42.997Z,100898.56
2023-05-31T04:56:44.484Z,100894.94
2023-05-31T04:59:45.971Z,100898.06
2023-05-31T05:02:47.563Z,100898.13
2023-05-31T05:05:51.621Z,100905.53
2023-05-31T05:08:53.377Z,100897.75
2023-05-31T05:11:56.867Z,100898.09
2023-05-31T05:14:58.349Z,100897.59
2023-05-31T05:18:01.060Z,100897.66
2023-05-31T05:21:02.788Z,100900.66
2023-05-31T05:24:07.167Z,100897.84
2023-05-31T05:27:09.953Z,100907.91
2023-05-31T05:30:14.122Z,100912.06
2023-05-31T05:33:16.125Z,100906.84
2023-05-31T05:36:17.934Z,100921.66
2023-05-31T05:39:25.311Z,100913.97
2023-05-31T05:42:28.656Z,100915.19
2023-05-31T05:45:30.215Z,100919.44
2023-05-31T05:48:32.885Z,100920.63
2023-05-31T05:51:34.402Z,100919.81
2023-05-31T05:54:41.686Z,100916.50
2023-05-31T05:57:46.025Z,100916.22
2023-05-31T06:01:01.262Z,100913.75
2023-05-31T06:04:03.045Z,100912.09
2023-05-31T06:07:04.654Z,100910.63
2023-05-31T06:10:06.868Z,100907.28
2023-05-31T06:13:08.337Z,100914.66
2023-05-31T06:16:09.982Z,100912.56
2023-05-31T06:19:11.624Z,100917.13
2023-05-31T06:22:13.239Z,100921.91
2023-05-31T06:25:14.817Z,100923.63
2023-05-31T06:28:16.566Z,100922.47
2023-05-31T06:31:19.040Z,100927.34
2023-05-31T06:34:20.717Z,100927.44
2023-05-31T06:37:25.105Z,100928.38
2023-05-31T06:40:26.938Z,100921.84
2023-05-31T06:43:28.371Z,100924.00
2023-05-31T06:46:52.007Z,100920.69
2023-05-31T06:50:31.365Z,100928.66
2023-05-31T06:53:51.335Z,100924.78
2023-05-31T06:56:58.895Z,100920.66
2023-05-31T07:00:00.701Z,100926.03
2023-05-31T07:03:02.436Z,100922.84
2023-05-31T07:06:04.289Z,100922.84
2023-05-31T07:09:06.559Z,100913.50
2023-05-31T07:12:11.541Z,100916.75
2023-05-31T07:15:13.008Z,100921.56
2023-05-31T07:18:14.538Z,100919.84
2023-05-31T07:21:16.865Z,100912.50
2023-05-31T07:24:18.325Z,100911.56
2023-05-31T07:27:20.675Z,100906.53
2023-05-31T07:30:22.171Z,100909.56
2023-05-31T07:33:28.986Z,100908.91
2023-05-31T07:36:31.996Z,100904.69
2023-05-31T07:39:33.414Z,100904.59
2023-05-31T07:42:35.541Z,100901.25
2023-05-31T07:45:37.070Z,100899.31
2023-05-31T07:48:38.598Z,100887.47
2023-05-31T07:51:40.661Z,100890.38
2023-05-31T07:54:42.070Z,100881.22
2023-05-31T07:57:43.539Z,100884.22
2023-05-31T08:00:45.338Z,100891.31
2023-05-31T08:03:47.220Z,100882.38
2023-05-31T08:06:48.706Z,100872.91
2023-05-31T08:09:50.165Z,100879.88
2023-05-31T08:12:51.643Z,100873.28
2023-05-31T08:15:53.353Z,100870.59
2023-05-31T08:18:55.011Z,100866.53
2023-05-31T08:21:57.072Z,100871.56
2023-05-31T08:25:01.350Z,100869.97
2023-05-31T08:28:05.166Z,100866.03
2023-05-31T08:31:09.721Z,100866.31
2023-05-31T08:34:13.303Z,100862.28
2023-05-31T08:37:14.998Z,100865.13
2023-05-31T08:40:16.548Z,100866.81
2023-05-31T08:43:22.267Z,100863.88
2023-05-31T08:46:24.037Z,100861.59
2023-05-31T08:49:26.238Z,100856.81
2023-05-31T08:52:29.172Z,100863.53
2023-05-31T08:55:31.032Z,100862.78
2023-05-31T08:58:33.216Z,100854.97
2023-05-31T09:01:36.339Z,100860.72
2023-05-31T09:04:40.590Z,100855.47
2023-05-31T09:07:42.256Z,100849.94
2023-05-31T09:10:43.712Z,100858.09
2023-05-31T09:13:45.169Z,100844.25
2023-05-31T09:16:51.151Z,100855.63
2023-05-31T09:19:55.036Z,100850.81
2023-05-31T09:22:56.558Z,100839.28
2023-05-31T09:26:00.890Z,100848.53
2023-05-31T09:29:02.341Z,100833.63
2023-05-31T09:32:11.081Z,100840.09
2023-05-31T09:35:18.041Z,100838.16
2023-05-31T09:38:19.516Z,100838.06
2023-05-31T09:41:22.234Z,100839.25
2023-05-31T09:44:29.098Z,100833.84
2023-05-31T09:47:31.033Z,100837.47
2023-05-31T09:50:32.603Z,100829.41
2023-05-31T09:53:41.888Z,100824.38
2023-05-31T09:56:44.806Z,100834.53
2023-05-31T09:59:47.633Z,100826.91
2023-05-31T10:02:52.236Z,100825.38
2023-05-31T10:05:53.796Z,100812.97
2023-05-31T10:08:55.457Z,100810.97
2023-05-31T10:12:03.341Z,100816.97
2023-05-31T10:15:10.046Z,100825.28
2023-05-31T10:18:17.297Z,100816.50
2023-05-31T10:21:25.818Z,100816.22
2023-05-31T10:24:34.117Z,100816.78
2023-05-31T10:27:39.361Z,100806.97
2023-05-31T10:30:42.519Z,100815.13
2023-05-31T10:33:50.056Z,100811.78
2023-05-31T10:36:52.839Z,100813.72
2023-05-31T10:40:07.441Z,100799.78
2023-05-31T10:43:35.687Z,100798.53
2023-05-31T10:46:41.217Z,100801.63
2023-05-31T10:49:44.502Z,100791.81
2023-05-31T10:52:49.142Z,100791.00
2023-05-31T10:55:50.802Z,100784.72
2023-05-31T10:58:56.882Z,100789.19
2023-05-31T11:02:00.843Z,100785.91
2023-05-31T11:05:21.754Z,100786.19
2023-05-31T11:08:23.924Z,100784.03
2023-05-31T11:11:26.206Z,100771.66
2023-05-31T11:14:32.163Z,100771.66
2023-05-31T11:17:51.070Z,100770.66
2023-05-31T11:20:52.631Z,100776.88
2023-05-31T11:23:55.788Z,100773.19
2023-05-31T11:27:05.418Z,100774.63
2023-05-31T11:30:35.841Z,100768.78
2023-05-31T11:33:57.524Z,100761.63
2023-05-31T11:37:03.557Z,100770.16
2023-05-31T11:40:13.459Z,100770.19
2023-05-31T11:43:19.803Z,100760.78
2023-05-31T11:46:21.394Z,100760.44
2023-05-31T11:49:23.157Z,100751.41
2023-05-31T11:52:24.795Z,100759.84
2023-05-31T11:55:36.538Z,100747.91
2023-05-31T11:58:38.001Z,100760.06
2023-05-31T12:01:41.080Z,100741.22
2023-05-31T12:04:43.815Z,100741.75
2023-05-31T12:07:46.549Z,100749.75
2023-05-31T12:10:48.173Z,100749.06
2023-05-31T12:13:50.036Z,100737.25
2023-05-31T12:16:52.211Z,100729.03
2023-05-31T12:19:53.644Z,100738.19
2023-05-31T12:23:13.158Z,100736.53
2023-05-31T12:26:15.699Z,100728.91
2023-05-31T12:29:18.464Z,100720.31
2023-05-31T12:32:20.481Z,100713.81
2023-05-31T12:35:22.016Z,100716.19
2023-05-31T12:38:29.920Z,100705.50
2023-05-31T12:41:31.523Z,100717.03
2023-05-31T12:44:34.230Z,100704.06
2023-05-31T12:47:37.074Z,100691.78
2023-05-31T12:50:46.141Z,100695.44
2023-05-31T12:53:47.688Z,100693.81
2023-05-31T12:56:49.151Z,100692.34
2023-05-31T12:59:58.737Z,100690.69
2023-05-31T13:03:00.497Z,100690.00
2023-05-31T13:06:02.921Z,100692.97
2023-05-31T13:09:05.645Z,100684.34
2023-05-31T13:12:07.854Z,100689.88
2023-05-31T13:15:09.842Z,100687.66
2023-05-31T13:18:11.351Z,100689.63
2023-05-31T13:21:13.027Z,100685.75
2023-05-31T13:24:14.978Z,100676.91
2023-05-31T13:27:16.612Z,100681.06
2023-05-31T13:30:18.136Z,100663.88
2023-05-31T13:33:19.842Z,100663.09
2023-05-31T13:36:23.733Z,100670.06
2023-05-31T13:39:25.206Z,100669.53
2023-05-31T13:42:27.199Z,100664.09
2023-05-31T13:45:28.624Z,100648.88
2023-05-31T13:48:30.205Z,100651.38
2023-05-31T13:51:31.952Z,100659.44
2023-05-31T13:54:33.374Z,100660.88
2023-05-31T13:57:34.834Z,100647.59
2023-05-31T14:00:40.036Z,100653.03
2023-05-31T14:03:44.514Z,100639.00
2023-05-31T14:06:46.993Z,100629.84
2023-05-31T14:09:48.409Z,100630.47
2023-05-31T14:12:50.090Z,100635.59
2023-05-31T14:15:52.680Z,100622.69
2023-05-31T14:18:55.721Z,100625.25
2023-05-31T14:21:57.608Z,100619.44
2023-05-31T14:24:59.265Z,100610.63
2023-05-31T14:28:00.838Z,100618.28
2023-05-31T14:31:03.393Z,100613.19
2023-05-31T14:34:05.456Z,100602.31
2023-05-31T14:37:14.911Z,100619.31
2023-05-31T14:40:17.386Z,100611.66
2023-05-31T14:43:18.851Z,100611.47
2023-05-31T14:46:20.431Z,100615.34
2023-05-31T14:49:22.194Z,100607.06
2023-05-31T14:52:23.843Z,100617.25
2023-05-31T14:55:25.270Z,100604.03
2023-05-31T14:58:28.274Z,100602.66
2023-05-31T15:01:29.980Z,100604.63
2023-05-31T15:04:31.464Z,100598.72
2023-05-31T15:07:32.916Z,100587.47
2023-05-31T15:10:34.389Z,100594.78
2023-05-31T15:13:35.825Z,100590.38
2023-05-31T15:16:37.399Z,100602.34
2023-05-31T15:19:39.476Z,100597.56
2023-05-31T15:22:40.970Z,100596.16
2023-05-31T15:25:42.638Z,100595.28
2023-05-31T15:28:44.061Z,100595.88
2023-05-31T15:31:45.575Z,100591.41
2023-05-31T15:34:47.022Z,100582.44
2023-05-31T15:37:48.574Z,100590.44
2023-05-31T15:40:50.393Z,100581.31
2023-05-31T15:43:51.940Z,100578.44
2023-05-31T15:46:53.576Z,100574.81
2023-05-31T15:49:55.664Z,100580.25
2023-05-31T15:52:57.102Z,100579.50
2023-05-31T15:55:58.654Z,100568.75
2023-05-31T15:59:00.303Z,100577.22
2023-05-31T16:02:02.115Z,100574.44
2023-05-31T16:05:04.201Z,100566.66
2023-05-31T16:08:06.426Z,100576.06
2023-05-31T16:11:07.873Z,100559.91
2023-05-31T16:14:10.340Z,100552.03
2023-05-31T16:17:11.799Z,100547.81
2023-05-31T16:20:13.695Z,100552.16
2023-05-31T16:23:15.175Z,100539.47
2023-05-31T16:26:16.962Z,100545.97
2023-05-31T16:29:18.550Z,100542.75
2023-05-31T16:32:20.003Z,100546.56
2023-05-31T16:35:21.546Z,100547.41
2023-05-31T16:38:23.052Z,100545.09
2023-05-31T16:41:24.453Z,100547.91
2023-05-31T16:44:26.003Z,100544.16
2023-05-31T16:47:27.469Z,100539.81
2023-05-31T16:50:28.954Z,100538.66
2023-05-31T16:53:30.700Z,100544.41
2023-05-31T16:56:32.221Z,100541.03
2023-05-31T16:59:33.744Z,100538.44
2023-05-31T17:02:35.221Z,100536.06
2023-05-31T17:05:36.757Z,100535.06
2023-05-31T17:08:38.253Z,100532.00
2023-05-31T17:11:39.968Z,100542.50
2023-05-31T17:14:41.426Z,100538.47
2023-05-31T17:17:43.396Z,100545.59
2023-05-31T17:20:44.918Z,100536.06
2023-05-31T17:23:46.406Z,100535.94
2023-05-31T17:26:48.331Z,100535.44
2023-05-31T17:29:49.818Z,100542.53
2023-05-31T17:32:51.666Z,100530.13
2023-05-31T17:35:55.311Z,100527.03
2023-05-31T17:38:57.746Z,100538.03
2023-05-31T17:41:59.231Z,100532.06
2023-05-31T17:45:00.657Z,100529.16
2023-05-31T17:48:02.696Z,100528.78
2023-05-31T17:51:04.233Z,100532.41
2023-05-31T17:54:05.931Z,100529.13
2023-05-31T17:57:08.203Z,100538.09
2023-05-31T18:00:10.317Z,100533.13
2023-05-31T18:03:13.377Z,100516.78
2023-05-31T18:06:14.973Z,100530.94
2023-05-31T18:09:16.643Z,100533.34
2023-05-31T18:12:18.150Z,100535.09
2023-05-31T18:15:19.618Z,100538.19
2023-05-31T18:18:21.297Z,100537.06
2023-05-31T18:21:22.925Z,100536.03
2023-05-31T18:24:24.368Z,100534.25
2023-05-31T18:27:25.788Z,100533.25
2023-05-31T18:30:30.155Z,100534.44
2023-05-31T18:33:31.607Z,100531.03
2023-05-31T18:36:33.107Z,100528.22
2023-05-31T18:39:34.909Z,100540.91
2023-05-31T18:42:37.060Z,100537.94
2023-05-31T18:45:38.658Z,100537.47
2023-05-31T18:48:40.144Z,100537.75
2023-05-31T18:51:41.718Z,100531.34
2023-05-31T18:54:43.367Z,100528.94
2023-05-31T18:57:44.948Z,100533.44
2023-05-31T19:00:47.174Z,100535.88
2023-05-31T19:03:49.561Z,100538.34
2023-05-31T19:06:51.890Z,100536.47
2023-05-31T19:09:53.373Z,100542.75
2023-05-31T19:12:54.822Z,100550.56
2023-05-31T19:15:56.798Z,100546.44
2023-05-31T19:18:58.453Z,100554.72
2023-05-31T19:22:00.798Z,100547.34
2023-05-31T19:25:02.703Z,100556.16
2023-05-31T19:28:04.159Z,100558.00
2023-05-31T19:31:05.645Z,100551.31
2023-05-31T19:34:07.166Z,100550.91
2023-05-31T19:37:08.636Z,100553.31
2023-05-31T19:40:10.708Z,100556.16
2023-05-31T19:43:12.282Z,100564.91
2023-05-31T19:46:24.071Z,100560.38
2023-05-31T19:49:26.516Z,100571.13
2023-05-31T19:52:27.976Z,100568.22
2023-05-31T19:55:30.195Z,100569.03
2023-05-31T19:58:32.144Z,100574.97
2023-05-31T20:01:33.621Z,100574.41
2023-05-31T20:04:35.450Z,100574.91
2023-05-31T20:07:37.206Z,100584.50
2023-05-31T20:10:39.376Z,100587.47
2023-05-31T20:13:41.007Z,100577.09
2023-05-31T20:16:43.065Z,100586.56
2023-05-31T20:19:44.528Z,100576.31
2023-05-31T20:22:46.044Z,100584.94
2023-05-31T20:25:47.532Z,100582.72
2023-05-31T20:28:49.366Z,100580.88
2023-05-31T20:31:50.861Z,100587.16
2023-05-31T20:34:52.322Z,100589.81
2023-05-31T20:37:53.746Z,100577.59
2023-05-31T20:40:55.275Z,100593.69
2023-05-31T20:43:56.690Z,100579.41
2023-05-31T20:46:58.381Z,100595.63
2023-05-31T20:49:59.931Z,100587.78
2023-05-31T20:53:01.850Z,100588.28
2023-05-31T20:56:03.550Z,100586.53
2023-05-31T20:59:05.423Z,100588.25
2023-05-31T21:02:07.048Z,100582.66
2023-05-31T21:05:08.766Z,100595.22
2023-05-31T21:08:10.323Z,100583.13
2023-05-31T21:11:11.831Z,100585.13
2023-05-31T21:14:13.251Z,100590.88
2023-05-31T21:17:14.795Z,100592.19
2023-05-31T21:20:16.227Z,100589.44
2023-05-31T21:23:18.927Z,100586.25
2023-05-31T21:26:20.436Z,100588.44
2023-05-31T21:29:21.945Z,100589.13
2023-05-31T21:32:23.501Z,100592.00
2023-05-31T21:35:25.135Z,100596.09
2023-05-31T21:38:26.602Z,100597.16
2023-05-31T21:41:28.065Z,100594.78
2023-05-31T21:44:29.750Z,100597.25
2023-05-31T21:47:31.226Z,100610.66
2023-05-31T21:50:32.705Z,100607.66
2023-05-31T21:53:34.114Z,100613.19
2023-05-31T21:56:35.585Z,100613.34
2023-05-31T21:59:37.337Z,100614.03
2023-05-31T22:02:39.304Z,100612.44
2023-05-31T22:05:40.801Z,100612.28
2023-05-31T22:08:42.312Z,100610.13
2023-05-31T22:11:43.933Z,100608.47
2023-05-31T22:14:45.587Z,100615.31
2023-05-31T22:17:50.774Z,100611.69
2023-05-31T22:20:57.692Z,100610.41
2023-05-31T22:23:59.596Z,100605.72
2023-05-31T22:27:01.447Z,100615.84
2023-05-31T22:30:04.288Z,100610.78
2023-05-31T22:33:06.361Z,100618.31
2023-05-31T22:36:08.555Z,100616.78
2023-05-31T22:39:09.973Z,100618.94
2023-05-31T22:42:11.446Z,100619.16
2023-05-31T22:45:13.340Z,100612.63
2023-05-31T22:48:14.823Z,100617.44
2023-05-31T22:51:17.146Z,100617.84
2023-05-31T22:54:18.569Z,100616.69
2023-05-31T22:57:19.971Z,100614.41
2023-05-31T23:00:21.674Z,100609.91
2023-05-31T23:03:23.422Z,100611.50
2023-05-31T23:06:26.395Z,100611.06
2023-05-31T23:09:29.299Z,100613.34
2023-05-31T23:12:34.450Z,100618.03
2023-05-31T23:15:39.303Z,100616.03
2023-05-31T23:18:41.710Z,100616.34
2023-05-31T23:21:46.104Z,100615.50
2023-05-31T23:24:47.798Z,100618.28
2023-05-31T23:27:49.220Z,100609.28
2023-05-31T23:30:50.682Z,100619.13
2023-05-31T23:33:52.656Z,100621.72
2023-05-31T23:36:54.086Z,100614.00
2023-05-31T23:39:55.562Z,100616.16
2023-05-31T23:42:56.976Z,100618.31
2023-05-31T23:45:58.399Z,100614.03
2023-05-31T23:48:59.896Z,100612.31
2023-05-31T23:52:01.518Z,100615.97
2023-05-31T23:55:04.170Z,100615.03
2023-05-31T23:58:05.613Z,100617.13
